Thomson Majesty — 9HA2188 — position and weather

sailwx.info

Track history (hours):
 
Tides and Currents Weather Stations Pressure Air Temp Water Temp Dewpoint Dewpoint Depression Visibility Wind Speed Wind Dir Waves Ship Positions

Thomson Majesty

Last reported at 2015-Jul-29 19:34 UTC. Time now 2015-Jul-29 19:55 UTC.
Position N 38°13' E 015°36'.

Length 207 m; draft 6.2 m.

Type: Ship. MMSI: 248124000.

Date/timePositionNaut miles runAvg speedWind from/ knotsBaromVisibWave heightAir tempDewpointWater temp
2015-Jul-29 19:34N 38°13' E 015°36'8 8.2
2015-Jul-29 18:33N 38°21' E 015°33'1211.7
2015-Jul-29 17:33N 38°24' E 015°19'1211.6
2015-Jul-29 16:33N 38°27' E 015°04'5 4.7
2015-Jul-29 15:28N 38°28' E 014°58'0 0.0
2015-Jul-29 14:13N 38°28' E 014°58'0 0.0
2015-Jul-29 13:25N 38°28' E 014°58'0 0.0
2015-Jul-29 12:31N 38°28' E 014°58'0 0.0
2015-Jul-29 11:31N 38°28' E 014°58'0 0.0
2015-Jul-29 10:31N 38°28' E 014°58'0 0.0
2015-Jul-29 09:31N 38°28' E 014°58'0 0.0
2015-Jul-29 08:31N 38°28' E 014°58'0 0.0
2015-Jul-29 04:33N 38°28' E 014°58'7 7.3
2015-Jul-29 03:33N 38°21' E 015°02'1212.0
2015-Jul-29 02:33N 38°20' E 014°47'1312.7
2015-Jul-29 01:32N 38°20' E 014°30'1313.1
2015-Jul-29 00:33N 38°20' E 014°14'1412.9
2015-Jul-28 23:27N 38°20' E 013°56'1212.9
2015-Jul-28 22:33N 38°20' E 013°41'1313.0
2015-Jul-28 21:33N 38°20' E 013°24'2812.9
2015-Jul-28 19:24N 38°15' E 012°50'1012.1
2015-Jul-28 18:33N 38°10' E 012°38'1212.2
2015-Jul-28 17:33N 38°01' E 012°28'2 2.0
2015-Jul-28 16:31N 38°01' E 012°30'0 0.0
2015-Jul-28 15:31N 38°01' E 012°30'0 0.0
2015-Jul-28 14:31N 38°01' E 012°30'0 0.0
2015-Jul-28 13:22N 38°01' E 012°30'0 0.0
2015-Jul-28 12:25N 38°01' E 012°30'0 0.0
2015-Jul-28 11:25N 38°01' E 012°30'0 0.0
2015-Jul-28 10:25N 38°01' E 012°30'0 0.0
2015-Jul-28 09:33N 38°01' E 012°30'4 4.2
2015-Jul-28 08:33N 38°04' E 012°28'1717.0
2015-Jul-28 07:33N 38°21' E 012°24'2216.8
2015-Jul-28 06:16N 38°43' E 012°20'1216.6
2015-Jul-28 05:34N 38°54' E 012°18'130 3.9
2015-Jul-26 20:33N 40°56' E 013°20'1312.6
2015-Jul-26 19:33N 40°48' E 013°34'1312.7
2015-Jul-26 18:32N 40°41' E 013°48'1212.0
2015-Jul-26 17:33N 40°40' E 014°03'1312.7
2015-Jul-26 16:33N 40°48' E 014°16'2 0.2
2015-Jul-26 05:32N 40°50' E 014°17'1414.6
2015-Jul-26 04:33N 40°36' E 014°18'1717.2
2015-Jul-26 03:33N 40°20' E 014°27'8617.1
2015-Jul-25 22:31N 39°03' E 015°15'1716.5
2015-Jul-25 21:30N 38°47' E 015°24'1616.7
2015-Jul-25 20:33N 38°33' E 015°33'1717.1
2015-Jul-25 19:33N 38°18' E 015°43'1514.7
2015-Jul-25 18:33N 38°05' E 015°36'1514.6
2015-Jul-25 17:34N 37°51' E 015°43'5816.7
2015-Jul-25 14:05N 38°07' E 016°54'202 4.5
2015-Jul-23 17:33N 41°06' E 018°58'1211.5
2015-Jul-23 16:33N 41°11' E 019°12'8 0.7
2015-Jul-23 04:33N 41°17' E 019°19'1712.2
2015-Jul-23 03:12N 41°30' E 019°06'812.6
2015-Jul-23 02:33N 41°37' E 018°60'1312.7
2015-Jul-23 01:33N 41°47' E 018°50'1312.8
2015-Jul-23 00:34N 41°57' E 018°40'1212.4
2015-Jul-22 23:34N 42°08' E 018°31'1312.5
2015-Jul-22 22:34N 42°18' E 018°22'1312.7
2015-Jul-22 21:33N 42°29' E 018°12'15 1.2
2015-Jul-22 08:33N 42°38' E 017°55'1716.4
2015-Jul-22 07:31N 42°42' E 017°33'  
Track history (hours):
 
Tides and Currents Weather Stations Pressure Air Temp Water Temp Dewpoint Dewpoint Depression Visibility Wind Speed Wind Dir Waves Ship Positions

Thomson Majesty

Last reported at 2015-Jul-29 19:34 UTC. Time now 2015-Jul-29 19:55 UTC.
Position N 38°13' E 015°36'.

Length 207 m; draft 6.2 m.

Type: Ship. MMSI: 248124000.

Date/timePositionNaut miles runAvg speedWind from/ knotsBaromVisibWave heightAir tempDewpointWater temp
2015-Jul-29 19:34N 38°13' E 015°36'8 8.2
2015-Jul-29 18:33N 38°21' E 015°33'1211.7
2015-Jul-29 17:33N 38°24' E 015°19'1211.6
2015-Jul-29 16:33N 38°27' E 015°04'5 4.7
2015-Jul-29 15:28N 38°28' E 014°58'0 0.0
2015-Jul-29 14:13N 38°28' E 014°58'0 0.0
2015-Jul-29 13:25N 38°28' E 014°58'0 0.0
2015-Jul-29 12:31N 38°28' E 014°58'0 0.0
2015-Jul-29 11:31N 38°28' E 014°58'0 0.0
2015-Jul-29 10:31N 38°28' E 014°58'0 0.0
2015-Jul-29 09:31N 38°28' E 014°58'0 0.0
2015-Jul-29 08:31N 38°28' E 014°58'0 0.0
2015-Jul-29 04:33N 38°28' E 014°58'7 7.3
2015-Jul-29 03:33N 38°21' E 015°02'1212.0
2015-Jul-29 02:33N 38°20' E 014°47'1312.7
2015-Jul-29 01:32N 38°20' E 014°30'1313.1
2015-Jul-29 00:33N 38°20' E 014°14'1412.9
2015-Jul-28 23:27N 38°20' E 013°56'1212.9
2015-Jul-28 22:33N 38°20' E 013°41'1313.0
2015-Jul-28 21:33N 38°20' E 013°24'2812.9
2015-Jul-28 19:24N 38°15' E 012°50'1012.1
2015-Jul-28 18:33N 38°10' E 012°38'1212.2
2015-Jul-28 17:33N 38°01' E 012°28'2 2.0
2015-Jul-28 16:31N 38°01' E 012°30'0 0.0
2015-Jul-28 15:31N 38°01' E 012°30'0 0.0
2015-Jul-28 14:31N 38°01' E 012°30'0 0.0
2015-Jul-28 13:22N 38°01' E 012°30'0 0.0
2015-Jul-28 12:25N 38°01' E 012°30'0 0.0
2015-Jul-28 11:25N 38°01' E 012°30'0 0.0
2015-Jul-28 10:25N 38°01' E 012°30'0 0.0
2015-Jul-28 09:33N 38°01' E 012°30'4 4.2
2015-Jul-28 08:33N 38°04' E 012°28'1717.0
2015-Jul-28 07:33N 38°21' E 012°24'2216.8
2015-Jul-28 06:16N 38°43' E 012°20'1216.6
2015-Jul-28 05:34N 38°54' E 012°18'130 3.9
2015-Jul-26 20:33N 40°56' E 013°20'1312.6
2015-Jul-26 19:33N 40°48' E 013°34'1312.7
2015-Jul-26 18:32N 40°41' E 013°48'1212.0
2015-Jul-26 17:33N 40°40' E 014°03'1312.7
2015-Jul-26 16:33N 40°48' E 014°16'2 0.2
2015-Jul-26 05:32N 40°50' E 014°17'1414.6
2015-Jul-26 04:33N 40°36' E 014°18'1717.2
2015-Jul-26 03:33N 40°20' E 014°27'8617.1
2015-Jul-25 22:31N 39°03' E 015°15'1716.5
2015-Jul-25 21:30N 38°47' E 015°24'1616.7
2015-Jul-25 20:33N 38°33' E 015°33'1717.1
2015-Jul-25 19:33N 38°18' E 015°43'1514.7
2015-Jul-25 18:33N 38°05' E 015°36'1514.6
2015-Jul-25 17:34N 37°51' E 015°43'5816.7
2015-Jul-25 14:05N 38°07' E 016°54'202 4.5
2015-Jul-23 17:33N 41°06' E 018°58'1211.5
2015-Jul-23 16:33N 41°11' E 019°12'8 0.7
2015-Jul-23 04:33N 41°17' E 019°19'1712.2
2015-Jul-23 03:12N 41°30' E 019°06'812.6
2015-Jul-23 02:33N 41°37' E 018°60'1312.7
2015-Jul-23 01:33N 41°47' E 018°50'1312.8
2015-Jul-23 00:34N 41°57' E 018°40'1212.4
2015-Jul-22 23:34N 42°08' E 018°31'1312.5
2015-Jul-22 22:34N 42°18' E 018°22'1312.7
2015-Jul-22 21:33N 42°29' E 018°12'15 1.2
2015-Jul-22 08:33N 42°38' E 017°55'1716.4
2015-Jul-22 07:31N 42°42' E 017°33'  

Dump ship's entire track history